createdAt,value
2023-03-10T00:01:12.195Z,5.05
2023-03-10T00:03:41.038Z,4.93
2023-03-10T00:06:09.961Z,4.78
2023-03-10T00:08:38.296Z,2.60
2023-03-10T00:11:06.811Z,7.05
2023-03-10T00:13:35.258Z,5.32
2023-03-10T00:16:05.713Z,3.97
2023-03-10T00:18:34.100Z,6.07
2023-03-10T00:21:02.392Z,3.33
2023-03-10T00:23:30.690Z,5.93
2023-03-10T00:26:00.818Z,4.07
2023-03-10T00:28:29.435Z,4.47
2023-03-10T00:30:59.876Z,4.70
2023-03-10T00:33:31.246Z,4.82
2023-03-10T00:36:04.460Z,3.72
2023-03-10T00:38:33.200Z,3.45
2023-03-10T00:41:02.406Z,2.03
2023-03-10T00:43:30.934Z,3.45
2023-03-10T00:45:59.488Z,3.30
2023-03-10T00:48:29.537Z,3.33
2023-03-10T00:50:57.841Z,4.68
2023-03-10T00:53:26.766Z,2.08
2023-03-10T00:56:00.125Z,2.33
2023-03-10T00:58:29.327Z,2.83
2023-03-10T01:00:58.257Z,3.03
2023-03-10T01:03:27.348Z,2.08
2023-03-10T01:05:57.960Z,3.15
2023-03-10T01:08:26.287Z,1.58
2023-03-10T01:10:54.514Z,1.45
2023-03-10T01:13:23.071Z,3.25
2023-03-10T01:15:51.601Z,2.47
2023-03-10T01:18:21.289Z,2.00
2023-03-10T01:20:50.332Z,2.60
2023-03-10T01:23:23.168Z,2.05
2023-03-10T01:25:51.885Z,2.88
2023-03-10T01:28:21.423Z,3.13
2023-03-10T01:30:50.598Z,3.25
2023-03-10T01:33:19.464Z,5.93
2023-03-10T01:35:47.896Z,3.08
2023-03-10T01:38:16.172Z,2.35
2023-03-10T01:40:49.998Z,2.72
2023-03-10T01:43:33.516Z,4.18
2023-03-10T01:46:31.672Z,3.08
2023-03-10T01:49:07.620Z,2.03
2023-03-10T01:51:38.802Z,3.22
2023-03-10T01:54:12.509Z,3.63
2023-03-10T01:56:42.746Z,6.70
2023-03-10T01:59:12.113Z,2.08
2023-03-10T02:01:40.465Z,2.53
2023-03-10T02:04:17.049Z,3.60
2023-03-10T02:06:47.120Z,3.30
2023-03-10T02:09:18.263Z,3.13
2023-03-10T02:11:49.061Z,2.47
2023-03-10T02:14:18.871Z,4.65
2023-03-10T02:16:47.393Z,2.45
2023-03-10T02:19:30.653Z,2.50
2023-03-10T02:22:06.007Z,2.65
2023-03-10T02:24:47.972Z,1.40
2023-03-10T02:27:20.573Z,3.63
2023-03-10T02:29:59.604Z,1.92
2023-03-10T02:32:35.516Z,2.05
2023-03-10T02:35:04.271Z,3.20
2023-03-10T02:37:36.418Z,3.95
2023-03-10T02:40:29.649Z,4.20
2023-03-10T02:43:00.218Z,2.17
2023-03-10T02:45:31.476Z,2.25
2023-03-10T02:47:59.863Z,3.53
2023-03-10T02:50:31.770Z,1.45
2023-03-10T02:53:07.180Z,2.22
2023-03-10T02:55:35.630Z,2.67
2023-03-10T02:58:05.166Z,3.28
2023-03-10T03:00:33.569Z,2.38
2023-03-10T03:03:03.636Z,1.88
2023-03-10T03:05:32.291Z,2.15
2023-03-10T03:08:01.087Z,3.38
2023-03-10T03:10:29.915Z,3.63
2023-03-10T03:12:58.284Z,2.33
2023-03-10T03:15:29.237Z,1.48
2023-03-10T03:17:58.900Z,2.15
2023-03-10T03:20:29.599Z,3.42
2023-03-10T03:22:59.468Z,2.63
2023-03-10T03:25:30.354Z,3.20
2023-03-10T03:27:59.720Z,3.33
2023-03-10T03:30:30.449Z,2.25
2023-03-10T03:32:59.948Z,2.05
2023-03-10T03:35:30.685Z,1.35
2023-03-10T03:37:59.731Z,1.98
2023-03-10T03:40:30.128Z,2.28
2023-03-10T03:42:58.901Z,3.38
2023-03-10T03:45:31.575Z,2.22
2023-03-10T03:48:00.895Z,1.15
2023-03-10T03:50:32.451Z,1.02
2023-03-10T03:53:08.097Z,1.55
2023-03-10T03:55:36.564Z,0.68
2023-03-10T03:58:05.173Z,1.23
2023-03-10T04:00:35.580Z,1.35
2023-03-10T04:03:07.435Z,1.02
2023-03-10T04:05:36.622Z,1.27
2023-03-10T04:08:05.864Z,2.03
2023-03-10T04:10:34.263Z,1.88
2023-03-10T04:13:02.566Z,2.90
2023-03-10T04:15:31.492Z,3.42
2023-03-10T04:18:02.383Z,3.70
2023-03-10T04:20:31.049Z,2.15
2023-03-10T04:23:02.034Z,1.25
2023-03-10T04:25:34.576Z,2.75
2023-03-10T04:28:03.218Z,5.70
2023-03-10T04:30:31.569Z,1.35
2023-03-10T04:33:04.709Z,2.50
2023-03-10T04:35:35.475Z,2.60
2023-03-10T04:38:04.075Z,4.75
2023-03-10T04:40:32.678Z,4.75
2023-03-10T04:43:01.282Z,1.08
2023-03-10T04:45:30.742Z,3.40
2023-03-10T04:47:59.541Z,4.93
2023-03-10T04:50:29.303Z,3.55
2023-03-10T04:52:59.524Z,7.40
2023-03-10T04:55:31.641Z,2.28
2023-03-10T04:58:00.880Z,4.38
2023-03-10T05:00:29.512Z,2.60
2023-03-10T05:02:57.785Z,2.97
2023-03-10T05:05:26.119Z,4.22
2023-03-10T05:07:55.777Z,5.25
2023-03-10T05:10:24.057Z,4.82
2023-03-10T05:12:53.312Z,4.32
2023-03-10T05:15:21.657Z,4.78
2023-03-10T05:17:50.227Z,6.25
2023-03-10T05:20:20.408Z,5.28
2023-03-10T05:22:48.812Z,4.32
2023-03-10T05:25:18.906Z,6.40
2023-03-10T05:27:47.526Z,4.28
2023-03-10T05:30:16.493Z,5.90
2023-03-10T05:32:47.743Z,6.95
2023-03-10T05:35:16.400Z,4.47
2023-03-10T05:37:46.695Z,4.45
2023-03-10T05:40:19.548Z,6.72
2023-03-10T05:42:50.785Z,5.13
2023-03-10T05:45:21.053Z,2.70
2023-03-10T05:47:49.397Z,6.50
2023-03-10T05:50:19.593Z,3.35
2023-03-10T05:52:47.952Z,4.57
2023-03-10T05:55:19.094Z,4.88
2023-03-10T05:57:50.183Z,5.78
2023-03-10T06:00:19.472Z,4.20
2023-03-10T06:02:57.852Z,5.80
2023-03-10T06:05:26.181Z,5.47
2023-03-10T06:07:54.365Z,2.35
2023-03-10T06:10:22.695Z,4.10
2023-03-10T06:12:52.175Z,4.97
2023-03-10T06:15:20.548Z,2.67
2023-03-10T06:17:48.777Z,7.30
2023-03-10T06:20:17.700Z,5.35
2023-03-10T06:22:46.160Z,7.20
2023-03-10T06:25:15.080Z,6.57
2023-03-10T06:27:43.245Z,7.20
2023-03-10T06:30:14.811Z,5.00
2023-03-10T06:32:43.625Z,5.38
2023-03-10T06:35:14.674Z,5.70
2023-03-10T06:37:43.272Z,6.00
2023-03-10T06:40:14.905Z,6.88
2023-03-10T06:42:44.105Z,7.32
2023-03-10T06:45:16.963Z,4.85
2023-03-10T06:47:45.477Z,5.40
2023-03-10T06:50:16.806Z,4.78
2023-03-10T06:52:45.711Z,5.28
2023-03-10T06:55:15.916Z,4.53
2023-03-10T06:57:44.216Z,6.80
2023-03-10T07:00:15.924Z,5.72
2023-03-10T07:02:44.425Z,3.83
2023-03-10T07:05:14.767Z,7.20
2023-03-10T07:07:43.093Z,4.15
2023-03-10T07:10:12.794Z,4.38
2023-03-10T07:12:41.024Z,4.32
2023-03-10T07:15:10.142Z,6.65
2023-03-10T07:17:39.706Z,4.95
2023-03-10T07:20:09.689Z,4.47
2023-03-10T07:22:38.222Z,6.97
2023-03-10T07:25:07.525Z,7.00
2023-03-10T07:27:35.846Z,6.60
2023-03-10T07:30:04.904Z,8.43
2023-03-10T07:32:33.378Z,4.18
2023-03-10T07:35:03.136Z,4.72
2023-03-10T07:37:31.433Z,5.72
2023-03-10T07:39:59.800Z,2.75
2023-03-10T07:42:28.066Z,6.03
2023-03-10T07:44:56.462Z,3.88
2023-03-10T07:47:24.722Z,6.45
2023-03-10T07:49:52.962Z,4.57
2023-03-10T07:52:22.665Z,4.25
2023-03-10T07:54:50.986Z,2.25
2023-03-10T07:57:19.332Z,4.10
2023-03-10T07:59:47.633Z,3.85
2023-03-10T08:02:16.425Z,5.82
2023-03-10T08:04:45.195Z,2.97
2023-03-10T08:07:13.708Z,3.95
2023-03-10T08:09:43.310Z,3.83
2023-03-10T08:12:11.698Z,5.47
2023-03-10T08:14:40.280Z,5.53
2023-03-10T08:17:08.596Z,4.90
2023-03-10T08:19:39.562Z,6.18
2023-03-10T08:22:08.248Z,6.10
2023-03-10T08:24:38.065Z,6.95
2023-03-10T08:27:07.745Z,8.57
2023-03-10T08:29:36.456Z,9.05
2023-03-10T08:32:05.172Z,7.32
2023-03-10T08:34:34.508Z,6.60
2023-03-10T08:37:02.821Z,4.63
2023-03-10T08:39:31.093Z,5.50
2023-03-10T08:41:59.443Z,7.45
2023-03-10T08:44:29.112Z,11.48
2023-03-10T08:46:57.640Z,6.07
2023-03-10T08:49:26.094Z,4.65
2023-03-10T08:51:54.583Z,6.60
2023-03-10T08:54:23.768Z,5.90
2023-03-10T08:56:52.268Z,5.35
2023-03-10T08:59:20.522Z,5.82
2023-03-10T09:01:50.136Z,4.88
2023-03-10T09:04:18.540Z,5.90
2023-03-10T09:06:48.044Z,3.67
2023-03-10T09:09:16.325Z,2.80
2023-03-10T09:11:45.032Z,3.72
2023-03-10T09:14:16.939Z,5.68
2023-03-10T09:16:45.736Z,4.60
2023-03-10T09:19:15.471Z,6.38
2023-03-10T09:21:44.010Z,5.05
2023-03-10T09:24:12.542Z,4.53
2023-03-10T09:26:42.878Z,3.33
2023-03-10T09:29:13.022Z,4.65
2023-03-10T09:31:41.384Z,4.15
2023-03-10T09:34:11.960Z,4.93
2023-03-10T09:36:41.618Z,3.55
2023-03-10T09:39:10.062Z,3.33
2023-03-10T09:42:01.657Z,2.95
2023-03-10T09:44:39.180Z,4.50
2023-03-10T09:47:24.901Z,2.47
2023-03-10T09:50:11.541Z,3.65
2023-03-10T09:52:46.106Z,3.67
2023-03-10T09:55:21.185Z,2.92
2023-03-10T09:57:51.981Z,5.22
2023-03-10T10:00:24.880Z,4.05
2023-03-10T10:03:08.968Z,3.30
2023-03-10T10:05:39.389Z,5.15
2023-03-10T10:08:19.381Z,4.57
2023-03-10T10:10:51.884Z,6.63
2023-03-10T10:13:23.162Z,4.60
2023-03-10T10:16:18.230Z,4.35
2023-03-10T10:18:55.944Z,5.15
2023-03-10T10:21:42.039Z,4.43
2023-03-10T10:24:12.483Z,2.60
2023-03-10T10:26:40.774Z,4.85
2023-03-10T10:29:17.157Z,5.20
2023-03-10T10:32:04.422Z,5.60
2023-03-10T10:34:33.320Z,5.28
2023-03-10T10:37:01.929Z,3.10
2023-03-10T10:39:34.902Z,3.85
2023-03-10T10:42:14.847Z,4.55
2023-03-10T10:44:44.311Z,4.28
2023-03-10T10:47:27.360Z,5.10
2023-03-10T10:49:57.069Z,1.67
2023-03-10T10:52:27.640Z,3.88
2023-03-10T10:55:00.077Z,3.90
2023-03-10T10:57:32.954Z,2.17
2023-03-10T11:00:18.430Z,2.10
2023-03-10T11:02:47.120Z,1.70
2023-03-10T11:05:18.004Z,3.35
2023-03-10T11:07:46.453Z,3.05
2023-03-10T11:10:18.195Z,2.42
2023-03-10T11:13:02.475Z,3.50
2023-03-10T11:15:34.900Z,5.18
2023-03-10T11:18:09.063Z,4.43
2023-03-10T11:20:46.454Z,2.47
2023-03-10T11:23:23.146Z,2.38
2023-03-10T11:25:57.886Z,2.78
2023-03-10T11:28:50.309Z,3.75
2023-03-10T11:31:30.540Z,4.10
2023-03-10T11:34:14.686Z,2.65
2023-03-10T11:36:56.008Z,1.92
2023-03-10T11:39:36.186Z,1.73
2023-03-10T11:42:11.409Z,2.22
2023-03-10T11:44:48.838Z,1.33
2023-03-10T11:47:25.389Z,4.40
2023-03-10T11:50:00.499Z,2.20
2023-03-10T11:52:30.450Z,1.17
2023-03-10T11:55:05.650Z,1.48
2023-03-10T11:57:42.711Z,2.22
2023-03-10T12:00:21.172Z,1.70
2023-03-10T12:03:07.163Z,1.55
2023-03-10T12:05:45.286Z,1.35
2023-03-10T12:08:15.136Z,1.85
2023-03-10T12:10:44.777Z,1.42
2023-03-10T12:13:25.151Z,0.98
2023-03-10T12:15:57.706Z,2.40
2023-03-10T12:18:27.091Z,1.52
2023-03-10T12:21:14.799Z,2.17
2023-03-10T12:23:44.071Z,2.20
2023-03-10T12:26:12.298Z,3.13
2023-03-10T12:28:42.536Z,1.20
2023-03-10T12:31:12.059Z,1.85
2023-03-10T12:33:46.830Z,1.80
2023-03-10T12:36:19.984Z,1.23
2023-03-10T12:38:51.726Z,1.55
2023-03-10T12:41:44.954Z,1.83
2023-03-10T12:44:46.978Z,1.38
2023-03-10T12:47:25.555Z,2.38
2023-03-10T12:49:58.346Z,1.77
2023-03-10T12:52:36.679Z,1.15
2023-03-10T12:55:15.537Z,1.65
2023-03-10T12:57:51.805Z,1.52
2023-03-10T13:00:39.460Z,1.45
2023-03-10T13:03:29.855Z,1.20
2023-03-10T13:06:02.385Z,2.28
2023-03-10T13:08:41.929Z,0.55
2023-03-10T13:11:24.101Z,3.65
2023-03-10T13:13:55.017Z,1.13
2023-03-10T13:16:23.406Z,4.20
2023-03-10T13:18:54.772Z,1.85
2023-03-10T13:21:26.746Z,0.77
2023-03-10T13:23:55.138Z,2.15
2023-03-10T13:26:24.299Z,0.98
2023-03-10T13:28:54.617Z,0.88
2023-03-10T13:31:25.165Z,1.08
2023-03-10T13:33:56.170Z,0.85
2023-03-10T13:36:32.187Z,2.30
2023-03-10T13:39:02.402Z,0.73
2023-03-10T13:41:33.555Z,1.17
2023-03-10T13:44:01.850Z,0.95
2023-03-10T13:46:32.748Z,1.95
2023-03-10T13:49:06.479Z,0.30
2023-03-10T13:51:36.311Z,1.77
2023-03-10T13:54:20.863Z,2.55
2023-03-10T13:56:52.245Z,0.65
2023-03-10T13:59:24.252Z,3.33
2023-03-10T14:01:55.461Z,0.70
2023-03-10T14:04:41.286Z,0.30
2023-03-10T14:07:12.356Z,1.23
2023-03-10T14:09:42.388Z,0.70
2023-03-10T14:12:11.520Z,0.77
2023-03-10T14:14:41.627Z,0.22
2023-03-10T14:17:29.584Z,0.68
2023-03-10T14:19:59.267Z,1.25
2023-03-10T14:22:37.704Z,2.30
2023-03-10T14:25:11.337Z,2.15
2023-03-10T14:27:42.396Z,1.33
2023-03-10T14:30:20.864Z,2.65
2023-03-10T14:32:49.638Z,1.48
2023-03-10T14:35:21.284Z,1.08
2023-03-10T14:37:50.847Z,1.33
2023-03-10T14:40:21.221Z,0.57
2023-03-10T14:42:51.922Z,0.43
2023-03-10T14:45:27.545Z,1.20
2023-03-10T14:47:57.850Z,1.33
2023-03-10T14:50:29.204Z,0.82
2023-03-10T14:52:57.911Z,0.75
2023-03-10T14:55:26.348Z,0.52
2023-03-10T14:57:59.532Z,0.10
2023-03-10T15:00:28.021Z,0.90
2023-03-10T15:02:56.237Z,0.45
2023-03-10T15:05:45.164Z,0.25
2023-03-10T15:08:15.624Z,1.65
2023-03-10T15:10:47.992Z,0.60
2023-03-10T15:13:18.489Z,0.55
2023-03-10T15:15:48.696Z,1.00
2023-03-10T15:18:18.822Z,0.08
2023-03-10T15:20:48.876Z,0.20
2023-03-10T15:23:20.156Z,0.20
2023-03-10T15:25:49.274Z,1.65
2023-03-10T15:28:17.842Z,0.40
2023-03-10T15:30:46.305Z,0.30
2023-03-10T15:33:14.842Z,0.20
2023-03-10T15:35:44.523Z,0.80
2023-03-10T15:38:16.166Z,0.45
2023-03-10T15:40:44.579Z,0.30
2023-03-10T15:43:12.897Z,0.10
2023-03-10T15:45:43.372Z,0.20
2023-03-10T15:48:11.984Z,0.30
2023-03-10T15:50:43.743Z,0.63
2023-03-10T15:53:12.065Z,0.75
2023-03-10T15:55:42.748Z,0.20
2023-03-10T15:58:11.320Z,1.45
2023-03-10T16:00:39.771Z,0.10
2023-03-10T16:03:08.340Z,0.38
2023-03-10T16:05:37.785Z,0.60
2023-03-10T16:08:07.133Z,0.68
2023-03-10T16:10:35.899Z,0.75
2023-03-10T16:13:05.576Z,0.17
2023-03-10T16:15:34.070Z,0.35
2023-03-10T16:18:02.388Z,0.30
2023-03-10T16:20:30.582Z,0.82
2023-03-10T16:22:58.878Z,0.93
2023-03-10T16:25:27.205Z,0.43
2023-03-10T16:27:55.470Z,1.35
2023-03-10T16:30:25.190Z,0.90
2023-03-10T16:32:53.661Z,1.67
2023-03-10T16:35:21.981Z,0.40
2023-03-10T16:37:50.234Z,0.75
2023-03-10T16:40:18.672Z,1.20
2023-03-10T16:42:46.948Z,1.27
2023-03-10T16:45:15.323Z,0.70
2023-03-10T16:47:47.280Z,0.35
2023-03-10T16:50:15.674Z,1.10
2023-03-10T16:52:43.996Z,0.82
2023-03-10T16:55:17.361Z,0.43
2023-03-10T16:57:46.338Z,1.13
2023-03-10T17:00:20.802Z,2.58
2023-03-10T17:02:50.774Z,1.17
2023-03-10T17:05:19.126Z,1.52
2023-03-10T17:07:55.599Z,3.13
2023-03-10T17:10:26.664Z,1.80
2023-03-10T17:12:54.951Z,0.85
2023-03-10T17:15:23.231Z,2.17
2023-03-10T17:17:53.021Z,1.23
2023-03-10T17:20:21.600Z,0.93
2023-03-10T17:22:49.920Z,2.13
2023-03-10T17:25:18.355Z,2.20
2023-03-10T17:27:47.996Z,0.85
2023-03-10T17:30:18.930Z,1.45
2023-03-10T17:32:49.437Z,0.40
2023-03-10T17:35:19.160Z,1.17
2023-03-10T17:37:47.561Z,0.88
2023-03-10T17:40:17.220Z,2.17
2023-03-10T17:42:45.600Z,1.30
2023-03-10T17:45:13.921Z,0.93
2023-03-10T17:47:42.288Z,1.05
2023-03-10T17:50:11.309Z,1.38
2023-03-10T17:52:40.966Z,2.17
2023-03-10T17:55:09.634Z,1.85
2023-03-10T17:57:40.641Z,2.75
2023-03-10T18:00:10.761Z,3.63
2023-03-10T18:02:42.328Z,0.55
2023-03-10T18:05:11.630Z,1.92
2023-03-10T18:07:41.322Z,1.35
2023-03-10T18:10:11.146Z,2.58
2023-03-10T18:12:39.582Z,2.20
2023-03-10T18:15:08.669Z,1.58
2023-03-10T18:17:36.952Z,2.05
2023-03-10T18:20:06.480Z,4.45
2023-03-10T18:22:34.927Z,1.05
2023-03-10T18:25:05.135Z,1.45
2023-03-10T18:27:34.466Z,1.58
2023-03-10T18:30:03.072Z,0.40
2023-03-10T18:32:31.707Z,0.80
2023-03-10T18:34:59.962Z,0.30
2023-03-10T18:37:29.214Z,0.93
2023-03-10T18:39:58.319Z,0.90
2023-03-10T18:42:28.853Z,0.43
2023-03-10T18:44:57.577Z,1.15
2023-03-10T18:47:26.097Z,0.82
2023-03-10T18:49:54.360Z,1.48
2023-03-10T18:52:22.674Z,1.30
2023-03-10T18:54:51.023Z,2.08
2023-03-10T18:57:19.346Z,1.60
2023-03-10T18:59:48.986Z,1.75
2023-03-10T19:02:17.488Z,2.20
2023-03-10T19:04:47.671Z,4.15
2023-03-10T19:07:17.522Z,2.22
2023-03-10T19:09:45.920Z,2.28
2023-03-10T19:12:14.436Z,2.50
2023-03-10T19:14:44.650Z,2.60
2023-03-10T19:17:14.828Z,2.33
2023-03-10T19:19:43.108Z,2.83
2023-03-10T19:22:11.494Z,2.67
2023-03-10T19:24:39.845Z,2.78
2023-03-10T19:27:08.115Z,3.13
2023-03-10T19:29:36.514Z,3.10
2023-03-10T19:32:04.826Z,2.75
2023-03-10T19:34:34.452Z,3.67
2023-03-10T19:37:03.010Z,3.22
2023-03-10T19:39:31.323Z,3.50
2023-03-10T19:41:59.556Z,4.00
2023-03-10T19:44:27.924Z,3.95
2023-03-10T19:46:56.675Z,4.72
2023-03-10T19:49:25.105Z,3.90
2023-03-10T19:51:54.726Z,4.32
2023-03-10T19:54:23.009Z,4.20
2023-03-10T19:56:51.363Z,4.07
2023-03-10T19:59:20.971Z,4.10
2023-03-10T20:01:51.537Z,4.70
2023-03-10T20:04:20.066Z,4.70
2023-03-10T20:06:48.394Z,5.28
2023-03-10T20:09:18.947Z,5.63
2023-03-10T20:11:47.247Z,5.93
2023-03-10T20:14:15.584Z,7.10
2023-03-10T20:16:43.903Z,6.75
2023-03-10T20:19:12.147Z,7.25
2023-03-10T20:21:41.519Z,6.57
2023-03-10T20:24:09.999Z,6.68
2023-03-10T20:26:39.768Z,6.70
2023-03-10T20:29:07.977Z,6.68
2023-03-10T20:31:36.386Z,6.82
2023-03-10T20:34:06.915Z,5.82
2023-03-10T20:36:35.550Z,5.68
2023-03-10T20:39:04.881Z,6.07
2023-03-10T20:41:33.210Z,6.13
2023-03-10T20:44:03.572Z,5.80
2023-03-10T20:46:32.674Z,5.30
2023-03-10T20:49:01.010Z,4.65
2023-03-10T20:51:29.399Z,4.65
2023-03-10T20:53:57.852Z,4.68
2023-03-10T20:56:26.229Z,4.72
2023-03-10T20:58:59.264Z,4.10
2023-03-10T21:01:30.024Z,4.20
2023-03-10T21:03:58.707Z,4.75
2023-03-10T21:06:27.969Z,4.95
2023-03-10T21:08:56.311Z,3.75
2023-03-10T21:11:24.598Z,3.97
2023-03-10T21:13:53.044Z,4.10
2023-03-10T21:16:21.442Z,3.78
2023-03-10T21:18:50.987Z,4.10
2023-03-10T21:21:19.326Z,4.07
2023-03-10T21:23:47.842Z,5.03
2023-03-10T21:26:17.886Z,4.10
2023-03-10T21:28:46.897Z,4.00
2023-03-10T21:31:16.190Z,3.65
2023-03-10T21:33:44.559Z,3.53
2023-03-10T21:36:16.411Z,3.75
2023-03-10T21:38:48.551Z,4.93
2023-03-10T21:41:17.884Z,3.42
2023-03-10T21:43:46.077Z,3.78
2023-03-10T21:46:14.500Z,3.47
2023-03-10T21:48:44.096Z,3.95
2023-03-10T21:51:16.841Z,4.45
2023-03-10T21:53:45.778Z,3.17
2023-03-10T21:56:17.514Z,3.70
2023-03-10T21:58:46.404Z,3.80
2023-03-10T22:01:16.352Z,4.40
2023-03-10T22:03:44.972Z,4.40
2023-03-10T22:06:14.698Z,3.70
2023-03-10T22:08:43.151Z,3.25
2023-03-10T22:11:13.054Z,2.92
2023-03-10T22:13:41.804Z,2.63
2023-03-10T22:16:13.742Z,3.58
2023-03-10T22:18:42.153Z,2.85
2023-03-10T22:21:10.460Z,3.15
2023-03-10T22:23:40.318Z,2.65
2023-03-10T22:26:09.204Z,3.53
2023-03-10T22:28:37.564Z,2.75
2023-03-10T22:31:07.399Z,3.40
2023-03-10T22:33:36.210Z,2.75
2023-03-10T22:36:05.441Z,3.42
2023-03-10T22:38:33.897Z,3.40
2023-03-10T22:41:11.928Z,3.75
2023-03-10T22:43:40.211Z,3.97
2023-03-10T22:46:10.278Z,3.40
2023-03-10T22:48:38.737Z,3.75
2023-03-10T22:51:08.216Z,3.80
2023-03-10T22:53:38.075Z,3.80
2023-03-10T22:56:07.089Z,2.97
2023-03-10T22:58:37.616Z,3.42
2023-03-10T23:01:06.992Z,3.65
2023-03-10T23:03:36.610Z,3.20
2023-03-10T23:06:06.264Z,3.05
2023-03-10T23:08:37.292Z,3.30
2023-03-10T23:11:09.806Z,3.70
2023-03-10T23:13:39.459Z,4.03
2023-03-10T23:16:08.682Z,4.15
2023-03-10T23:18:37.166Z,3.72
2023-03-10T23:21:06.619Z,3.92
2023-03-10T23:23:34.868Z,3.55
2023-03-10T23:26:03.141Z,3.65
2023-03-10T23:28:31.423Z,4.28
2023-03-10T23:31:01.207Z,3.85
2023-03-10T23:33:29.529Z,5.55
2023-03-10T23:35:57.967Z,4.03
2023-03-10T23:38:27.480Z,3.80
2023-03-10T23:40:56.396Z,3.05
2023-03-10T23:43:24.975Z,3.47
2023-03-10T23:45:53.594Z,3.42
2023-03-10T23:48:24.596Z,3.08
2023-03-10T23:50:52.953Z,2.65
2023-03-10T23:53:21.754Z,3.33
2023-03-10T23:55:50.337Z,4.28
2023-03-10T23:58:20.997Z,3.63
